createdAt,value
2018-01-27T00:00:20.424Z,2.50
2018-01-27T00:02:48.766Z,2.50
2018-01-27T00:05:17.072Z,2.60
2018-01-27T00:07:45.388Z,2.50
2018-01-27T00:10:14.036Z,2.40
2018-01-27T00:12:42.368Z,2.40
2018-01-27T00:15:10.863Z,2.30
2018-01-27T00:17:39.289Z,2.40
2018-01-27T00:20:08.393Z,2.40
2018-01-27T00:22:48.413Z,2.40
2018-01-27T00:25:16.710Z,2.30
2018-01-27T00:27:45.026Z,2.10
2018-01-27T00:30:13.324Z,2.10
2018-01-27T00:32:41.649Z,1.90
2018-01-27T00:35:09.995Z,1.80
2018-01-27T00:37:39.117Z,1.50
2018-01-27T00:40:07.455Z,1.50
2018-01-27T00:42:35.803Z,1.40
2018-01-27T00:45:04.887Z,1.40
2018-01-27T00:47:33.198Z,1.40
2018-01-27T00:50:01.556Z,1.40
2018-01-27T00:52:29.892Z,1.40
2018-01-27T00:54:58.974Z,1.50
2018-01-27T00:57:27.299Z,1.40
2018-01-27T00:59:55.612Z,1.40
2018-01-27T01:02:23.917Z,1.10
2018-01-27T01:04:52.224Z,1.00
2018-01-27T01:07:20.532Z,0.80
2018-01-27T01:09:48.847Z,0.70
2018-01-27T01:12:17.914Z,0.50
2018-01-27T01:14:46.226Z,0.50
2018-01-27T01:17:14.533Z,0.40
2018-01-27T01:19:43.599Z,0.30
2018-01-27T01:22:11.891Z,0.20
2018-01-27T01:24:40.216Z,0.20
2018-01-27T01:27:09.292Z,0.20
2018-01-27T01:29:37.630Z,0.20
2018-01-27T01:32:06.905Z,0.30
2018-01-27T01:34:35.219Z,0.50
2018-01-27T01:37:04.294Z,0.70
2018-01-27T01:39:32.608Z,0.70
2018-01-27T01:42:01.753Z,1.00
2018-01-27T01:44:30.108Z,1.00
2018-01-27T01:46:58.402Z,1.10
2018-01-27T01:49:27.519Z,1.00
2018-01-27T01:51:56.712Z,1.10
2018-01-27T01:54:25.072Z,1.10
2018-01-27T01:56:53.447Z,1.20
2018-01-27T01:59:21.750Z,1.30
2018-01-27T02:01:50.061Z,1.30
2018-01-27T02:04:18.365Z,1.20
2018-01-27T02:06:46.775Z,1.30
2018-01-27T02:09:15.946Z,1.40
2018-01-27T02:11:44.258Z,1.30
2018-01-27T02:14:12.670Z,1.40
2018-01-27T02:16:41.867Z,1.60
2018-01-27T02:19:10.198Z,1.60
2018-01-27T02:21:38.511Z,1.70
2018-01-27T02:24:06.864Z,1.60
2018-01-27T02:26:35.565Z,1.70
2018-01-27T02:29:03.887Z,1.70
2018-01-27T02:31:32.258Z,1.70
2018-01-27T02:34:00.668Z,1.80
2018-01-27T02:36:29.012Z,1.80
2018-01-27T02:38:58.106Z,1.70
2018-01-27T02:41:26.404Z,1.60
2018-01-27T02:43:54.790Z,1.60
2018-01-27T02:46:23.878Z,1.50
2018-01-27T02:48:52.199Z,1.50
2018-01-27T02:51:21.272Z,1.50
2018-01-27T02:53:49.597Z,1.40
2018-01-27T02:56:18.990Z,1.40
2018-01-27T02:58:47.347Z,1.40
2018-01-27T03:01:15.653Z,1.40
2018-01-27T03:03:43.955Z,1.30
2018-01-27T03:06:12.266Z,1.30
2018-01-27T03:08:40.626Z,1.20
2018-01-27T03:11:09.036Z,1.10
2018-01-27T03:13:37.369Z,1.10
2018-01-27T03:16:05.749Z,1.00
2018-01-27T03:18:35.093Z,1.20
2018-01-27T03:21:03.424Z,1.10
2018-01-27T03:23:31.739Z,1.20
2018-01-27T03:26:00.806Z,1.30
2018-01-27T03:28:29.131Z,1.30
2018-01-27T03:30:57.713Z,1.30
2018-01-27T03:33:26.015Z,1.30
2018-01-27T03:35:54.319Z,1.30
2018-01-27T03:38:22.613Z,1.20
2018-01-27T03:40:51.793Z,1.30
2018-01-27T03:43:20.123Z,1.30
2018-01-27T03:45:49.330Z,1.40
2018-01-27T03:48:17.643Z,1.40
2018-01-27T03:50:45.948Z,1.30
2018-01-27T03:53:14.290Z,1.30
2018-01-27T03:55:42.584Z,1.30
2018-01-27T03:58:11.746Z,1.30
2018-01-27T04:00:40.074Z,1.30
2018-01-27T04:03:08.440Z,1.30
2018-01-27T04:05:36.759Z,1.20
2018-01-27T04:08:05.111Z,1.20
2018-01-27T04:10:33.408Z,1.20
2018-01-27T04:13:01.709Z,1.20
2018-01-27T04:15:30.423Z,1.20
2018-01-27T04:17:58.735Z,1.10
2018-01-27T04:20:27.810Z,0.80
2018-01-27T04:22:56.121Z,0.80
2018-01-27T04:25:24.433Z,0.80
2018-01-27T04:27:52.740Z,0.70
2018-01-27T04:30:21.051Z,0.60
2018-01-27T04:32:49.878Z,0.60
2018-01-27T04:35:18.170Z,0.40
2018-01-27T04:37:46.474Z,0.40
2018-01-27T04:40:14.798Z,0.30
2018-01-27T04:42:43.107Z,0.20
2018-01-27T04:45:11.765Z,0.10
2018-01-27T04:47:40.953Z,0.00
2018-01-27T04:50:09.246Z,0.00
2018-01-27T04:52:37.560Z,0.00
2018-01-27T04:55:06.669Z,0.00
2018-01-27T04:57:35.913Z,-0.10
2018-01-27T05:00:04.264Z,-0.10
2018-01-27T05:02:33.345Z,-0.10
2018-01-27T05:05:01.678Z,-0.20
2018-01-27T05:07:30.084Z,-0.20
2018-01-27T05:09:58.399Z,-0.20
2018-01-27T05:12:26.779Z,-0.30
2018-01-27T05:14:55.137Z,-0.30
2018-01-27T05:17:24.238Z,-0.40
2018-01-27T05:19:53.346Z,-0.50
2018-01-27T05:22:22.490Z,-0.50
2018-01-27T05:24:50.935Z,-0.50
2018-01-27T05:27:19.242Z,-0.60
2018-01-27T05:29:48.312Z,-0.70
2018-01-27T05:32:16.672Z,-0.70
2018-01-27T05:34:45.003Z,-0.70
2018-01-27T05:37:13.355Z,-0.80
2018-01-27T05:39:41.685Z,-0.80
2018-01-27T05:42:10.036Z,-0.90
2018-01-27T05:44:38.385Z,-1.00
2018-01-27T05:47:06.892Z,-1.10
2018-01-27T05:49:35.285Z,-1.20
2018-01-27T05:52:04.410Z,-1.30
2018-01-27T05:54:32.799Z,-1.30
2018-01-27T05:57:01.090Z,-1.20
2018-01-27T05:59:29.704Z,-1.30
2018-01-27T06:01:58.014Z,-1.50
2018-01-27T06:04:26.385Z,-1.40
2018-01-27T06:06:54.706Z,-1.40
2018-01-27T06:09:23.151Z,-1.40
2018-01-27T06:11:52.227Z,-1.60
2018-01-27T06:14:20.617Z,-1.60
2018-01-27T06:16:48.994Z,-1.60
2018-01-27T06:19:17.314Z,-1.60
2018-01-27T06:21:45.639Z,-1.70
2018-01-27T06:24:13.963Z,-1.60
2018-01-27T06:26:42.313Z,-1.60
2018-01-27T06:29:11.433Z,-1.40
2018-01-27T06:31:39.769Z,-1.40
2018-01-27T06:34:08.126Z,-1.40
2018-01-27T06:36:36.498Z,-1.40
2018-01-27T06:39:05.075Z,-1.40
2018-01-27T06:41:33.815Z,-1.30
2018-01-27T06:44:02.210Z,-1.20
2018-01-27T06:46:30.560Z,-1.10
2018-01-27T06:48:59.712Z,-0.60
2018-01-27T06:51:28.099Z,-0.70
2018-01-27T06:53:56.807Z,-0.60
2018-01-27T06:56:25.192Z,-0.50
2018-01-27T06:58:53.537Z,-0.50
2018-01-27T07:01:23.002Z,-0.30
2018-01-27T07:03:51.350Z,-0.30
2018-01-27T07:06:20.450Z,-0.30
2018-01-27T07:08:49.957Z,-0.10
2018-01-27T07:11:18.298Z,-0.10
2018-01-27T07:13:46.646Z,-0.10
2018-01-27T07:16:15.339Z,0.00
2018-01-27T07:18:43.679Z,0.10
2018-01-27T07:21:12.045Z,0.00
2018-01-27T07:23:40.946Z,0.00
2018-01-27T07:26:09.328Z,0.00
2018-01-27T07:28:37.791Z,0.00
2018-01-27T07:31:06.443Z,0.10
2018-01-27T07:33:35.540Z,0.30
2018-01-27T07:36:03.889Z,0.30
2018-01-27T07:38:32.303Z,0.30
2018-01-27T07:41:00.665Z,0.20
2018-01-27T07:43:29.107Z,0.20
2018-01-27T07:45:57.617Z,0.30
2018-01-27T07:48:26.078Z,0.30
2018-01-27T07:50:54.511Z,0.30
2018-01-27T07:53:23.230Z,0.30
2018-01-27T07:55:51.666Z,0.30
2018-01-27T07:58:20.143Z,0.20
2018-01-27T08:00:48.899Z,0.30
2018-01-27T08:03:17.368Z,0.40
2018-01-27T08:05:46.541Z,0.50
2018-01-27T08:08:14.962Z,0.50
2018-01-27T08:10:43.370Z,0.50
2018-01-27T08:13:12.548Z,0.60
2018-01-27T08:15:40.894Z,0.60
2018-01-27T08:18:09.269Z,0.70
2018-01-27T08:20:37.786Z,0.80
2018-01-27T08:23:06.265Z,0.90
2018-01-27T08:25:34.659Z,1.00
2018-01-27T08:28:03.007Z,1.10
2018-01-27T08:30:31.709Z,1.10
2018-01-27T08:33:00.050Z,1.20
2018-01-27T08:35:28.518Z,1.20
2018-01-27T08:37:57.667Z,1.40
2018-01-27T08:40:25.978Z,1.40
2018-01-27T08:42:54.689Z,1.40
2018-01-27T08:45:23.046Z,1.40
2018-01-27T08:47:51.396Z,1.50
2018-01-27T08:50:19.808Z,1.60
2018-01-27T08:52:48.242Z,1.60
2018-01-27T08:55:16.749Z,1.60
2018-01-27T08:57:45.118Z,1.70
2018-01-27T09:00:13.549Z,1.70
2018-01-27T09:02:41.955Z,1.70
2018-01-27T09:05:11.064Z,1.70
2018-01-27T09:07:40.526Z,1.70
2018-01-27T09:10:09.041Z,1.60
2018-01-27T09:12:37.526Z,1.60
2018-01-27T09:15:05.944Z,1.60
2018-01-27T09:17:35.191Z,1.80
2018-01-27T09:20:03.659Z,1.80
2018-01-27T09:22:32.077Z,1.90
2018-01-27T09:25:00.444Z,2.00
2018-01-27T09:27:28.831Z,2.10
2018-01-27T09:29:58.175Z,2.10
2018-01-27T09:32:26.673Z,2.10
2018-01-27T09:34:55.017Z,2.30
2018-01-27T09:37:23.405Z,2.30
2018-01-27T09:39:51.799Z,2.50
2018-01-27T09:42:20.167Z,2.70
2018-01-27T09:44:48.937Z,2.80
2018-01-27T09:47:18.066Z,3.20
2018-01-27T09:49:46.420Z,3.20
2018-01-27T09:52:14.846Z,3.40
2018-01-27T09:54:43.231Z,3.40
2018-01-27T09:57:12.010Z,3.50
2018-01-27T09:59:40.609Z,3.60
2018-01-27T10:02:09.028Z,3.70
2018-01-27T10:04:37.391Z,3.80
2018-01-27T10:07:05.794Z,3.90
2018-01-27T10:09:34.979Z,4.00
2018-01-27T10:12:04.089Z,4.00
2018-01-27T10:14:33.269Z,3.90
2018-01-27T10:17:01.660Z,3.80
2018-01-27T10:19:30.026Z,3.70
2018-01-27T10:21:58.404Z,3.60
2018-01-27T10:24:26.817Z,3.50
2018-01-27T10:26:55.404Z,3.30
2018-01-27T10:29:23.769Z,3.20
2018-01-27T10:31:52.917Z,3.10
2018-01-27T10:34:21.253Z,3.10
2018-01-27T10:36:49.597Z,3.00
2018-01-27T10:39:18.234Z,3.00
2018-01-27T10:41:46.566Z,3.10
2018-01-27T10:44:15.015Z,3.10
2018-01-27T10:46:43.383Z,3.20
2018-01-27T10:49:11.735Z,3.20
2018-01-27T10:51:41.206Z,3.40
2018-01-27T10:54:09.543Z,3.40
2018-01-27T10:56:38.826Z,3.50
2018-01-27T10:59:07.975Z,3.40
2018-01-27T11:01:36.423Z,3.40
2018-01-27T11:04:04.828Z,3.30
2018-01-27T11:06:33.170Z,3.20
2018-01-27T11:09:01.546Z,3.20
2018-01-27T11:11:29.954Z,3.30
2018-01-27T11:13:58.303Z,3.40
2018-01-27T11:16:44.576Z,3.50
2018-01-27T11:19:13.002Z,3.60
2018-01-27T11:21:41.383Z,3.60
2018-01-27T11:24:09.830Z,3.70
2018-01-27T11:26:38.238Z,3.80
2018-01-27T11:29:07.019Z,3.70
2018-01-27T11:31:35.436Z,3.60
2018-01-27T11:34:03.802Z,3.50
2018-01-27T11:36:33.165Z,3.50
2018-01-27T11:39:01.547Z,3.50
2018-01-27T11:41:29.970Z,3.50
2018-01-27T11:43:58.431Z,3.60
2018-01-27T11:46:26.786Z,3.60
2018-01-27T11:48:56.178Z,3.80
2018-01-27T11:51:24.519Z,4.00
2018-01-27T11:53:53.226Z,4.20
2018-01-27T11:56:21.624Z,4.50
2018-01-27T11:58:49.990Z,4.60
2018-01-27T12:01:18.338Z,4.80
2018-01-27T12:03:46.680Z,4.90
2018-01-27T12:06:15.127Z,5.10
2018-01-27T12:08:43.455Z,5.20
2018-01-27T12:11:11.868Z,5.30
2018-01-27T12:13:40.372Z,5.30
2018-01-27T12:16:08.846Z,5.40
2018-01-27T12:18:37.410Z,5.30
2018-01-27T12:21:06.548Z,4.90
2018-01-27T12:23:34.999Z,4.90
2018-01-27T12:26:03.324Z,4.70
2018-01-27T12:28:31.701Z,4.50
2018-01-27T12:31:01.116Z,4.40
2018-01-27T12:33:30.333Z,4.30
2018-01-27T12:35:58.716Z,4.30
2018-01-27T12:38:27.833Z,4.20
2018-01-27T12:40:56.954Z,4.20
2018-01-27T12:43:25.637Z,4.20
2018-01-27T12:45:54.778Z,4.10
2018-01-27T12:48:23.128Z,4.00
2018-01-27T12:50:52.249Z,4.00
2018-01-27T12:53:21.367Z,4.20
2018-01-27T12:55:50.042Z,4.20
2018-01-27T12:58:18.382Z,4.40
2018-01-27T13:00:46.722Z,4.60
2018-01-27T13:03:15.170Z,4.70
2018-01-27T13:05:43.532Z,4.80
2018-01-27T13:08:12.298Z,4.80
2018-01-27T13:10:40.645Z,5.10
2018-01-27T13:13:09.050Z,5.70
2018-01-27T13:15:37.460Z,6.10
2018-01-27T13:18:06.188Z,6.20
2018-01-27T13:20:34.749Z,6.10
2018-01-27T13:23:03.175Z,5.60
2018-01-27T13:25:31.565Z,5.40
2018-01-27T13:28:00.141Z,5.00
2018-01-27T13:30:28.567Z,5.00
2018-01-27T13:32:57.719Z,5.50
2018-01-27T13:35:26.080Z,5.50
2018-01-27T13:37:55.233Z,5.80
2018-01-27T13:40:23.579Z,5.80
2018-01-27T13:42:52.011Z,5.70
2018-01-27T13:45:20.445Z,5.30
2018-01-27T13:47:48.979Z,5.20
2018-01-27T13:50:17.346Z,5.00
2018-01-27T13:52:46.447Z,5.30
2018-01-27T13:55:15.593Z,5.20
2018-01-27T13:57:44.219Z,5.20
2018-01-27T14:00:12.575Z,4.90
2018-01-27T14:02:40.933Z,4.50
2018-01-27T14:05:09.321Z,4.30
2018-01-27T14:07:37.775Z,4.20
2018-01-27T14:10:07.289Z,4.10
2018-01-27T14:12:35.783Z,4.20
2018-01-27T14:15:04.338Z,4.10
2018-01-27T14:17:33.591Z,3.90
2018-01-27T14:20:02.027Z,3.90
2018-01-27T14:22:31.214Z,3.80
2018-01-27T14:24:59.647Z,3.80
2018-01-27T14:27:28.161Z,3.80
2018-01-27T14:29:56.604Z,3.80
2018-01-27T14:32:24.997Z,3.70
2018-01-27T14:34:53.518Z,3.80
2018-01-27T14:37:23.668Z,3.60
2018-01-27T14:39:52.046Z,3.60
2018-01-27T14:42:21.230Z,3.50
2018-01-27T14:44:49.655Z,3.50
2018-01-27T14:47:19.098Z,3.90
2018-01-27T14:49:47.425Z,3.90
2018-01-27T14:52:15.739Z,4.30
2018-01-27T14:54:44.842Z,4.50
2018-01-27T14:57:13.197Z,4.50
2018-01-27T14:59:41.857Z,4.10
2018-01-27T15:02:10.213Z,3.90
2018-01-27T15:04:38.608Z,3.50
2018-01-27T15:07:06.952Z,3.20
2018-01-27T15:09:35.503Z,3.00
2018-01-27T15:12:04.240Z,2.80
2018-01-27T15:14:32.572Z,2.70
2018-01-27T15:17:00.893Z,2.60
2018-01-27T15:19:30.005Z,2.40
2018-01-27T15:21:59.120Z,2.30
2018-01-27T15:24:28.611Z,2.20
2018-01-27T15:26:57.000Z,2.20
2018-01-27T15:29:25.342Z,2.20
2018-01-27T15:31:53.677Z,2.10
2018-01-27T15:34:22.030Z,2.10
2018-01-27T15:36:50.660Z,2.00
2018-01-27T15:39:19.032Z,2.00
2018-01-27T15:41:47.384Z,2.00
2018-01-27T15:44:15.900Z,1.90
2018-01-27T15:46:44.246Z,1.90
2018-01-27T15:49:12.622Z,1.90
2018-01-27T15:51:41.013Z,2.00
2018-01-27T15:54:09.454Z,2.00
2018-01-27T15:56:37.916Z,2.10
2018-01-27T15:59:06.347Z,2.10
2018-01-27T16:01:35.008Z,2.00
2018-01-27T16:04:03.336Z,1.90
2018-01-27T16:06:31.694Z,1.80
2018-01-27T16:09:00.035Z,1.70
2018-01-27T16:11:29.226Z,1.60
2018-01-27T16:13:57.957Z,1.60
2018-01-27T16:16:26.293Z,1.80
2018-01-27T16:18:54.630Z,1.70
2018-01-27T16:21:22.991Z,1.70
2018-01-27T16:23:52.386Z,1.60
2018-01-27T16:26:20.733Z,1.60
2018-01-27T16:28:49.097Z,1.60
2018-01-27T16:31:17.483Z,1.70
2018-01-27T16:33:46.609Z,1.70
2018-01-27T16:36:15.276Z,1.70
2018-01-27T16:38:43.607Z,1.70
2018-01-27T16:41:11.930Z,1.60
2018-01-27T16:43:40.259Z,1.60
2018-01-27T16:46:09.670Z,1.70
2018-01-27T16:48:38.891Z,1.70
2018-01-27T16:51:08.086Z,1.80
2018-01-27T16:53:36.731Z,1.80
2018-01-27T16:56:05.270Z,1.80
2018-01-27T16:58:33.626Z,1.80
2018-01-27T17:01:02.964Z,1.90
2018-01-27T17:03:31.601Z,1.90
2018-01-27T17:06:00.769Z,2.00
2018-01-27T17:08:29.075Z,2.00
2018-01-27T17:10:58.194Z,2.00
2018-01-27T17:13:27.273Z,1.90
2018-01-27T17:15:55.650Z,1.90
2018-01-27T17:18:24.073Z,1.90
2018-01-27T17:20:52.369Z,1.80
2018-01-27T17:23:20.670Z,1.80
2018-01-27T17:25:49.738Z,1.80
2018-01-27T17:28:18.038Z,1.80
2018-01-27T17:30:46.339Z,1.80
2018-01-27T17:33:14.643Z,1.80
2018-01-27T17:35:42.954Z,1.90
2018-01-27T17:38:11.267Z,1.80
2018-01-27T17:40:39.634Z,1.90
2018-01-27T17:43:07.975Z,1.80
2018-01-27T17:45:36.651Z,1.90
2018-01-27T17:48:05.013Z,1.90
2018-01-27T17:50:34.067Z,1.90
2018-01-27T17:53:02.378Z,1.90
2018-01-27T17:55:30.750Z,1.90
2018-01-27T17:57:59.051Z,2.00
2018-01-27T18:00:27.383Z,2.00
2018-01-27T18:02:56.527Z,1.90
2018-01-27T18:05:24.806Z,1.90
2018-01-27T18:07:53.086Z,1.90
2018-01-27T18:10:21.379Z,1.90
2018-01-27T18:12:49.682Z,2.00
2018-01-27T18:15:17.980Z,2.00
2018-01-27T18:17:46.404Z,1.90
2018-01-27T18:20:14.680Z,1.90
2018-01-27T18:22:42.963Z,1.90
2018-01-27T18:25:11.630Z,1.80
2018-01-27T18:27:40.333Z,1.80
2018-01-27T18:30:08.649Z,1.80
2018-01-27T18:32:37.281Z,1.80
2018-01-27T18:35:06.445Z,1.80
2018-01-27T18:37:34.784Z,1.80
2018-01-27T18:40:03.174Z,1.80
2018-01-27T18:42:32.346Z,2.00
2018-01-27T18:45:00.757Z,2.00
2018-01-27T18:47:29.156Z,2.00
2018-01-27T18:49:57.560Z,1.90
2018-01-27T18:52:25.860Z,1.80
2018-01-27T18:54:55.047Z,1.90
2018-01-27T18:57:23.338Z,1.90
2018-01-27T18:59:51.660Z,1.90
2018-01-27T19:02:20.710Z,2.00
2018-01-27T19:04:49.019Z,1.90
2018-01-27T19:07:17.325Z,2.00
2018-01-27T19:09:45.634Z,2.00
2018-01-27T19:12:14.721Z,2.10
2018-01-27T19:14:43.018Z,2.10
2018-01-27T19:17:11.403Z,2.10
2018-01-27T19:19:39.707Z,2.10
2018-01-27T19:22:08.022Z,2.20
2018-01-27T19:24:36.606Z,2.20
2018-01-27T19:27:05.701Z,2.20
2018-01-27T19:29:33.986Z,2.20
2018-01-27T19:32:03.081Z,2.30
2018-01-27T19:34:31.385Z,2.30
2018-01-27T19:36:59.693Z,2.30
2018-01-27T19:39:28.753Z,2.30
2018-01-27T19:41:57.069Z,2.40
2018-01-27T19:44:25.466Z,2.30
2018-01-27T19:46:53.886Z,2.40
2018-01-27T19:49:22.978Z,2.40
2018-01-27T19:51:52.148Z,2.50
2018-01-27T19:54:20.498Z,2.50
2018-01-27T19:56:48.872Z,2.50
2018-01-27T19:59:17.940Z,2.50
2018-01-27T20:01:46.395Z,2.50
2018-01-27T20:04:15.166Z,2.60
2018-01-27T20:06:43.791Z,2.60
2018-01-27T20:09:12.290Z,2.50
2018-01-27T20:11:41.095Z,2.60
2018-01-27T20:14:09.925Z,2.60
2018-01-27T20:16:38.378Z,2.60
2018-01-27T20:19:06.766Z,2.50
2018-01-27T20:21:35.863Z,2.50
2018-01-27T20:24:04.671Z,2.50
2018-01-27T20:26:33.003Z,2.60
2018-01-27T20:29:01.328Z,2.50
2018-01-27T20:31:29.722Z,2.50
2018-01-27T20:33:59.019Z,2.50
2018-01-27T20:36:27.343Z,2.60
2018-01-27T20:38:56.491Z,2.50
2018-01-27T20:41:24.816Z,2.50
2018-01-27T20:43:53.606Z,2.60
2018-01-27T20:46:22.750Z,2.70
2018-01-27T20:48:51.843Z,2.70
2018-01-27T20:51:20.154Z,2.60
2018-01-27T20:53:49.224Z,2.70
2018-01-27T20:56:17.562Z,2.70
2018-01-27T20:58:46.747Z,2.70
2018-01-27T21:01:15.124Z,2.70
2018-01-27T21:03:43.511Z,2.70
2018-01-27T21:06:12.003Z,2.70
2018-01-27T21:08:40.417Z,2.70
2018-01-27T21:11:08.774Z,2.80
2018-01-27T21:13:37.080Z,2.70
2018-01-27T21:16:05.430Z,2.80
2018-01-27T21:18:33.835Z,2.80
2018-01-27T21:21:03.209Z,2.80
2018-01-27T21:23:31.499Z,2.80
2018-01-27T21:25:59.798Z,2.90
2018-01-27T21:28:28.903Z,3.00
2018-01-27T21:30:58.124Z,3.00
2018-01-27T21:33:27.518Z,3.10
2018-01-27T21:35:55.811Z,3.10
2018-01-27T21:38:24.120Z,3.10
2018-01-27T21:40:53.184Z,3.10
2018-01-27T21:43:22.379Z,3.10
2018-01-27T21:45:50.757Z,3.20
2018-01-27T21:48:19.084Z,3.10
2018-01-27T21:50:47.402Z,3.20
2018-01-27T21:53:16.517Z,3.10
2018-01-27T21:55:45.660Z,3.00
2018-01-27T21:58:14.047Z,3.00
2018-01-27T22:00:42.414Z,3.10
2018-01-27T22:03:11.587Z,3.00
2018-01-27T22:05:39.910Z,3.00
2018-01-27T22:08:08.996Z,3.00
2018-01-27T22:10:37.714Z,3.00
2018-01-27T22:13:06.808Z,3.00
2018-01-27T22:15:35.092Z,2.90
2018-01-27T22:18:03.390Z,3.00
2018-01-27T22:20:31.702Z,3.00
2018-01-27T22:23:01.106Z,2.90
2018-01-27T22:25:29.442Z,2.90
2018-01-27T22:27:57.822Z,2.90
2018-01-27T22:30:26.160Z,2.90
2018-01-27T22:32:54.463Z,2.90
2018-01-27T22:35:23.073Z,2.90
2018-01-27T22:37:52.134Z,2.80
2018-01-27T22:40:20.444Z,2.80
2018-01-27T22:42:48.749Z,2.80
2018-01-27T22:45:17.042Z,2.80
2018-01-27T22:47:45.489Z,2.80
2018-01-27T22:50:13.875Z,2.80
2018-01-27T22:52:42.181Z,2.80
2018-01-27T22:55:10.489Z,2.80
2018-01-27T22:57:38.771Z,2.80
2018-01-27T23:00:07.383Z,2.80
2018-01-27T23:02:35.715Z,2.80
2018-01-27T23:05:04.029Z,2.90
2018-01-27T23:07:32.360Z,2.90
2018-01-27T23:10:00.752Z,3.00
2018-01-27T23:12:29.044Z,3.00
2018-01-27T23:14:57.405Z,3.10
2018-01-27T23:17:25.719Z,3.10
2018-01-27T23:19:54.997Z,3.10
2018-01-27T23:22:23.621Z,3.10
2018-01-27T23:24:51.936Z,3.10
2018-01-27T23:27:21.009Z,3.20
2018-01-27T23:29:49.290Z,3.20
2018-01-27T23:32:17.599Z,3.10
2018-01-27T23:34:45.993Z,3.00
2018-01-27T23:37:14.280Z,3.00
2018-01-27T23:39:42.890Z,3.00
2018-01-27T23:42:11.198Z,2.90
2018-01-27T23:44:40.348Z,3.00
2018-01-27T23:47:08.717Z,3.00
2018-01-27T23:49:37.025Z,3.00
2018-01-27T23:52:05.314Z,3.10
2018-01-27T23:54:33.603Z,3.10
2018-01-27T23:57:01.969Z,3.00
2018-01-27T23:59:31.384Z,2.80
